sensor_id;sensor_type;location;lat;lon;timestamp;pressure;altitude;pressure_sealevel;temperature;humidity
42951;BME280;28592;51.064;17.192;2022-12-07T00:01:53;99787.04;;;3.44;100.00
42951;BME280;28592;51.064;17.192;2022-12-07T00:04:38;99780.98;;;3.44;100.00
42951;BME280;28592;51.064;17.192;2022-12-07T00:07:23;99780.13;;;3.43;100.00
42951;BME280;28592;51.064;17.192;2022-12-07T00:10:09;99778.03;;;3.36;100.00
42951;BME280;28592;51.064;17.192;2022-12-07T00:12:57;99772.90;;;3.34;100.00
42951;BME280;28592;51.064;17.192;2022-12-07T00:15:43;99770.81;;;3.52;100.00
42951;BME280;28592;51.064;17.192;2022-12-07T00:18:30;99775.75;;;3.44;100.00
42951;BME280;28592;51.064;17.192;2022-12-07T00:21:22;99768.52;;;3.60;100.00
42951;BME280;28592;51.064;17.192;2022-12-07T00:24:11;99765.19;;;3.58;100.00
42951;BME280;28592;51.064;17.192;2022-12-07T00:27:00;99764.55;;;3.54;100.00
42951;BME280;28592;51.064;17.192;2022-12-07T00:29:49;99762.76;;;3.68;100.00
42951;BME280;28592;51.064;17.192;2022-12-07T00:32:37;99758.56;;;3.52;100.00
42951;BME280;28592;51.064;17.192;2022-12-07T00:35:25;99767.32;;;3.26;100.00
42951;BME280;28592;51.064;17.192;2022-12-07T00:38:14;99761.67;;;3.32;100.00
42951;BME280;28592;51.064;17.192;2022-12-07T00:41:05;99747.36;;;3.38;100.00
42951;BME280;28592;51.064;17.192;2022-12-07T00:43:54;99751.75;;;3.37;100.00
42951;BME280;28592;51.064;17.192;2022-12-07T00:46:43;99746.17;;;3.29;100.00
42951;BME280;28592;51.064;17.192;2022-12-07T00:49:33;99753.21;;;3.29;100.00
42951;BME280;28592;51.064;17.192;2022-12-07T00:52:22;99736.78;;;3.39;100.00
42951;BME280;28592;51.064;17.192;2022-12-07T00:55:10;99753.72;;;3.34;100.00
42951;BME280;28592;51.064;17.192;2022-12-07T00:57:58;99751.61;;;3.26;100.00
42951;BME280;28592;51.064;17.192;2022-12-07T01:00:47;99760.42;;;3.25;100.00
42951;BME280;28592;51.064;17.192;2022-12-07T01:03:37;99759.27;;;3.29;100.00
42951;BME280;28592;51.064;17.192;2022-12-07T01:06:25;99759.47;;;3.26;100.00
42951;BME280;28592;51.064;17.192;2022-12-07T01:09:10;99758.01;;;3.22;100.00
42951;BME280;28592;51.064;17.192;2022-12-07T01:11:56;99752.88;;;3.21;100.00
42951;BME280;28592;51.064;17.192;2022-12-07T01:14:41;99755.59;;;3.19;100.00
42951;BME280;28592;51.064;17.192;2022-12-07T01:17:28;99754.09;;;3.15;100.00
42951;BME280;28592;51.064;17.192;2022-12-07T01:20:17;99754.44;;;3.23;100.00
42951;BME280;28592;51.064;17.192;2022-12-07T01:23:05;99751.61;;;3.26;100.00
42951;BME280;28592;51.064;17.192;2022-12-07T01:25:58;99747.23;;;3.27;100.00
42951;BME280;28592;51.064;17.192;2022-12-07T01:28:46;99757.26;;;3.20;100.00
42951;BME280;28592;51.064;17.192;2022-12-07T01:31:32;99748.89;;;3.28;100.00
42951;BME280;28592;51.064;17.192;2022-12-07T01:34:18;99747.00;;;3.17;100.00
42951;BME280;28592;51.064;17.192;2022-12-07T01:37:03;99766.06;;;3.19;100.00
42951;BME280;28592;51.064;17.192;2022-12-07T01:39:52;99754.30;;;3.12;100.00
42951;BME280;28592;51.064;17.192;2022-12-07T01:42:41;99750.16;;;3.22;100.00
42951;BME280;28592;51.064;17.192;2022-12-07T01:48:34;99748.87;;;3.15;100.00
42951;BME280;28592;51.064;17.192;2022-12-07T01:51:21;99740.84;;;3.31;100.00
42951;BME280;28592;51.064;17.192;2022-12-07T01:54:08;99746.17;;;3.29;100.00
42951;BME280;28592;51.064;17.192;2022-12-07T01:56:58;99749.95;;;3.25;100.00
42951;BME280;28592;51.064;17.192;2022-12-07T01:59:49;99758.45;;;3.29;100.00
42951;BME280;28592;51.064;17.192;2022-12-07T02:02:41;99760.11;;;3.30;100.00
42951;BME280;28592;51.064;17.192;2022-12-07T02:05:28;99755.83;;;3.29;100.00
42951;BME280;28592;51.064;17.192;2022-12-07T02:08:14;99760.08;;;3.17;100.00
42951;BME280;28592;51.064;17.192;2022-12-07T02:11:02;99764.40;;;3.18;100.00
42951;BME280;28592;51.064;17.192;2022-12-07T02:13:48;99760.94;;;3.18;100.00
42951;BME280;28592;51.064;17.192;2022-12-07T02:28:31;99746.92;;;3.31;100.00
42951;BME280;28592;51.064;17.192;2022-12-07T02:31:23;99743.55;;;3.29;100.00
42951;BME280;28592;51.064;17.192;2022-12-07T02:34:20;99749.09;;;3.25;100.00
42951;BME280;28592;51.064;17.192;2022-12-07T02:40:17;99747.44;;;3.24;100.00
42951;BME280;28592;51.064;17.192;2022-12-07T02:46:06;99749.54;;;3.31;100.00
42951;BME280;28592;51.064;17.192;2022-12-07T02:48:54;99754.30;;;3.12;100.00
42951;BME280;28592;51.064;17.192;2022-12-07T02:51:42;99746.66;;;3.09;100.00
42951;BME280;28592;51.064;17.192;2022-12-07T02:54:28;99748.45;;;3.09;100.00
42951;BME280;28592;51.064;17.192;2022-12-07T03:00:17;99747.61;;;3.08;100.00
42951;BME280;28592;51.064;17.192;2022-12-07T03:03:08;99736.29;;;3.08;100.00
42951;BME280;28592;51.064;17.192;2022-12-07T03:09:01;99747.56;;;2.96;100.00
42951;BME280;28592;51.064;17.192;2022-12-07T03:11:51;99742.73;;;2.90;100.00
42951;BME280;28592;51.064;17.192;2022-12-07T03:14:50;99745.30;;;3.04;100.00
42951;BME280;28592;51.064;17.192;2022-12-07T03:17:42;99745.30;;;3.04;100.00
42951;BME280;28592;51.064;17.192;2022-12-07T03:20:29;99751.78;;;2.98;100.00
42951;BME280;28592;51.064;17.192;2022-12-07T03:23:18;99742.47;;;3.07;100.00
42951;BME280;28592;51.064;17.192;2022-12-07T03:26:11;99746.66;;;3.09;100.00
42951;BME280;28592;51.064;17.192;2022-12-07T03:29:01;99731.70;;;3.11;100.00
42951;BME280;28592;51.064;17.192;2022-12-07T03:31:56;99735.53;;;2.93;100.00
42951;BME280;28592;51.064;17.192;2022-12-07T03:37:49;99733.36;;;3.00;100.00
42951;BME280;28592;51.064;17.192;2022-12-07T03:40:54;99726.67;;;3.08;100.00
42951;BME280;28592;51.064;17.192;2022-12-07T03:43:36;99725.62;;;3.11;100.00
42951;BME280;28592;51.064;17.192;2022-12-07T03:55:23;99709.81;;;3.12;100.00
42951;BME280;28592;51.064;17.192;2022-12-07T03:58:12;99705.53;;;3.11;100.00
42951;BME280;28592;51.064;17.192;2022-12-07T04:04:07;99698.86;;;3.20;100.00
42951;BME280;28592;51.064;17.192;2022-12-07T04:06:53;99709.33;;;3.20;100.00
42951;BME280;28592;51.064;17.192;2022-12-07T04:09:39;99721.02;;;3.14;100.00
42951;BME280;28592;51.064;17.192;2022-12-07T04:12:24;99717.45;;;3.15;100.00
42951;BME280;28592;51.064;17.192;2022-12-07T04:15:10;99715.48;;;3.19;100.00
42951;BME280;28592;51.064;17.192;2022-12-07T04:17:56;99712.97;;;3.17;100.00
42951;BME280;28592;51.064;17.192;2022-12-07T04:20:41;99725.14;;;3.18;100.00
42951;BME280;28592;51.064;17.192;2022-12-07T04:23:27;99727.21;;;3.13;100.00
42951;BME280;28592;51.064;17.192;2022-12-07T04:26:13;99723.12;;;3.22;100.00
42951;BME280;28592;51.064;17.192;2022-12-07T04:28:58;99718.74;;;3.22;100.00
42951;BME280;28592;51.064;17.192;2022-12-07T04:31:44;99718.95;;;3.19;100.00
42951;BME280;28592;51.064;17.192;2022-12-07T04:34:29;99716.66;;;3.27;100.00
42951;BME280;28592;51.064;17.192;2022-12-07T04:37:15;99713.92;;;3.16;100.00
42951;BME280;28592;51.064;17.192;2022-12-07T04:40:02;99712.22;;;3.15;100.00
42951;BME280;28592;51.064;17.192;2022-12-07T04:42:47;99721.09;;;3.00;100.00
42951;BME280;28592;51.064;17.192;2022-12-07T04:45:33;99716.09;;;3.10;100.00
42951;BME280;28592;51.064;17.192;2022-12-07T04:48:18;99713.66;;;2.94;100.00
42951;BME280;28592;51.064;17.192;2022-12-07T04:51:04;99722.25;;;2.96;100.00
42951;BME280;28592;51.064;17.192;2022-12-07T04:53:49;99717.97;;;2.95;100.00
42951;BME280;28592;51.064;17.192;2022-12-07T04:56:35;99711.92;;;3.07;100.00
42951;BME280;28592;51.064;17.192;2022-12-07T04:59:21;99719.77;;;3.07;100.00
42951;BME280;28592;51.064;17.192;2022-12-07T05:02:06;99715.55;;;3.05;100.00
42951;BME280;28592;51.064;17.192;2022-12-07T05:04:52;99710.97;;;3.08;100.00
42951;BME280;28592;51.064;17.192;2022-12-07T05:07:38;99704.67;;;3.11;100.00
42951;BME280;28592;51.064;17.192;2022-12-07T05:10:24;99718.58;;;2.99;100.00
42951;BME280;28592;51.064;17.192;2022-12-07T05:13:10;99707.40;;;2.97;100.00
42951;BME280;28592;51.064;17.192;2022-12-07T05:15:55;99710.32;;;3.05;100.00
42951;BME280;28592;51.064;17.192;2022-12-07T05:18:41;99708.02;;;3.00;100.00
42951;BME280;28592;51.064;17.192;2022-12-07T05:21:27;99703.73;;;2.99;100.00
42951;BME280;28592;51.064;17.192;2022-12-07T05:24:14;99714.95;;;3.01;100.00
42951;BME280;28592;51.064;17.192;2022-12-07T05:27:01;99712.84;;;3.06;100.00
42951;BME280;28592;51.064;17.192;2022-12-07T05:29:50;99710.32;;;3.05;100.00
42951;BME280;28592;51.064;17.192;2022-12-07T05:32:36;99706.38;;;3.12;100.00
42951;BME280;28592;51.064;17.192;2022-12-07T05:35:24;99704.58;;;3.12;100.00
42951;BME280;28592;51.064;17.192;2022-12-07T05:38:10;99704.50;;;3.26;100.00
42951;BME280;28592;51.064;17.192;2022-12-07T05:41:00;99709.13;;;3.23;100.00
42951;BME280;28592;51.064;17.192;2022-12-07T05:43:49;99709.60;;;3.15;100.00
42951;BME280;28592;51.064;17.192;2022-12-07T05:46:35;99712.84;;;3.06;100.00
42951;BME280;28592;51.064;17.192;2022-12-07T05:49:23;99711.30;;;3.16;100.00
42951;BME280;28592;51.064;17.192;2022-12-07T05:52:08;99713.20;;;3.27;100.00
42951;BME280;28592;51.064;17.192;2022-12-07T05:54:54;99713.50;;;3.22;100.00
42951;BME280;28592;51.064;17.192;2022-12-07T05:57:40;99713.50;;;3.22;100.00
42951;BME280;28592;51.064;17.192;2022-12-07T06:00:35;99722.28;;;3.09;100.00
42951;BME280;28592;51.064;17.192;2022-12-07T06:03:20;99722.08;;;3.12;100.00
42951;BME280;28592;51.064;17.192;2022-12-07T06:06:06;99718.61;;;3.11;100.00
42951;BME280;28592;51.064;17.192;2022-12-07T06:08:52;99713.30;;;3.25;100.00
42951;BME280;28592;51.064;17.192;2022-12-07T06:11:37;99705.34;;;3.27;100.00
42951;BME280;28592;51.064;17.192;2022-12-07T06:14:34;99709.84;;;3.37;100.00
42951;BME280;28592;51.064;17.192;2022-12-07T06:17:20;99702.93;;;3.24;100.00
42951;BME280;28592;51.064;17.192;2022-12-07T06:20:06;99696.03;;;3.23;100.00
42951;BME280;28592;51.064;17.192;2022-12-07T06:22:51;99702.41;;;3.31;100.00
42951;BME280;28592;51.064;17.192;2022-12-07T06:25:45;99705.66;;;3.47;100.00
42951;BME280;28592;51.064;17.192;2022-12-07T06:28:30;99717.60;;;3.39;100.00
42951;BME280;28592;51.064;17.192;2022-12-07T06:31:16;99709.94;;;3.23;100.00
42951;BME280;28592;51.064;17.192;2022-12-07T06:34:03;99711.20;;;3.18;100.00
42951;BME280;28592;51.064;17.192;2022-12-07T06:36:50;99706.91;;;3.17;100.00
42951;BME280;28592;51.064;17.192;2022-12-07T06:39:40;99729.63;;;3.16;100.00
42951;BME280;28592;51.064;17.192;2022-12-07T06:42:25;99721.67;;;3.18;100.00
42951;BME280;28592;51.064;17.192;2022-12-07T06:45:11;99712.97;;;3.17;100.00
42951;BME280;28592;51.064;17.192;2022-12-07T06:47:59;99708.91;;;3.26;100.00
42951;BME280;28592;51.064;17.192;2022-12-07T06:50:48;99710.69;;;3.25;100.00
42951;BME280;28592;51.064;17.192;2022-12-07T06:53:35;99706.40;;;3.24;100.00
42951;BME280;28592;51.064;17.192;2022-12-07T06:56:22;99709.11;;;3.35;100.00
42951;BME280;28592;51.064;17.192;2022-12-07T06:59:08;99713.30;;;3.50;100.00
42951;BME280;28592;51.064;17.192;2022-12-07T07:01:54;99719.28;;;3.52;100.00
42951;BME280;28592;51.064;17.192;2022-12-07T07:04:40;99709.76;;;3.51;100.00
42951;BME280;28592;51.064;17.192;2022-12-07T07:07:25;99709.75;;;3.39;100.00
42951;BME280;28592;51.064;17.192;2022-12-07T07:10:10;99703.66;;;3.38;100.00
42951;BME280;28592;51.064;17.192;2022-12-07T07:12:56;99709.11;;;3.35;100.00
42951;BME280;28592;51.064;17.192;2022-12-07T07:15:45;99698.42;;;3.38;100.00
42951;BME280;28592;51.064;17.192;2022-12-07T07:18:31;99705.44;;;3.50;100.00
42951;BME280;28592;51.064;17.192;2022-12-07T07:21:16;99701.58;;;3.43;100.00
42951;BME280;28592;51.064;17.192;2022-12-07T07:24:02;99707.95;;;3.52;100.00
42951;BME280;28592;51.064;17.192;2022-12-07T07:26:47;99704.08;;;3.32;100.00
42951;BME280;28592;51.064;17.192;2022-12-07T07:29:33;99702.53;;;3.42;100.00
42951;BME280;28592;51.064;17.192;2022-12-07T07:32:18;99697.40;;;3.41;100.00
42951;BME280;28592;51.064;17.192;2022-12-07T07:35:06;99703.47;;;3.29;100.00
42951;BME280;28592;51.064;17.192;2022-12-07T07:37:52;99701.58;;;3.43;100.00
42951;BME280;28592;51.064;17.192;2022-12-07T07:40:37;99701.05;;;3.38;100.00
42951;BME280;28592;51.064;17.192;2022-12-07T07:43:22;99692.77;;;3.44;100.00
42951;BME280;28592;51.064;17.192;2022-12-07T07:46:08;99699.70;;;3.45;100.00
42951;BME280;28592;51.064;17.192;2022-12-07T07:48:54;99689.33;;;3.44;100.00
42951;BME280;28592;51.064;17.192;2022-12-07T07:51:39;99701.68;;;3.42;100.00
42951;BME280;28592;51.064;17.192;2022-12-07T07:54:24;99686.72;;;3.56;100.00
42951;BME280;28592;51.064;17.192;2022-12-07T07:57:14;99696.34;;;3.43;100.00
42951;BME280;28592;51.064;17.192;2022-12-07T08:00:10;99695.59;;;3.41;100.00
42951;BME280;28592;51.064;17.192;2022-12-07T08:02:56;99699.28;;;3.64;100.00
42951;BME280;28592;51.064;17.192;2022-12-07T08:05:41;99694.97;;;3.63;100.00
42951;BME280;28592;51.064;17.192;2022-12-07T08:08:26;99699.89;;;3.55;100.00
42951;BME280;28592;51.064;17.192;2022-12-07T08:11:11;99700.84;;;3.54;100.00
42951;BME280;28592;51.064;17.192;2022-12-07T08:13:57;99707.25;;;3.50;100.00
42951;BME280;28592;51.064;17.192;2022-12-07T08:16:42;99711.95;;;3.57;100.00
42951;BME280;28592;51.064;17.192;2022-12-07T08:19:28;99706.83;;;3.69;100.00
42951;BME280;28592;51.064;17.192;2022-12-07T08:22:13;99716.45;;;3.68;100.00
42951;BME280;28592;51.064;17.192;2022-12-07T08:24:59;99706.93;;;3.67;100.00
42951;BME280;28592;51.064;17.192;2022-12-07T08:27:44;99709.13;;;3.60;100.00
42951;BME280;28592;51.064;17.192;2022-12-07T08:30:30;99708.91;;;3.63;100.00
42951;BME280;28592;51.064;17.192;2022-12-07T08:33:16;99715.81;;;3.52;100.00
42951;BME280;28592;51.064;17.192;2022-12-07T08:36:08;99713.09;;;3.66;100.00
42951;BME280;28592;51.064;17.192;2022-12-07T08:38:53;99700.95;;;3.65;100.00
42951;BME280;28592;51.064;17.192;2022-12-07T08:41:39;99714.58;;;3.57;100.00
42951;BME280;28592;51.064;17.192;2022-12-07T08:44:24;99707.67;;;3.56;100.00
42951;BME280;28592;51.064;17.192;2022-12-07T08:47:12;99707.25;;;3.63;100.00
42951;BME280;28592;51.064;17.192;2022-12-07T08:49:58;99691.64;;;3.61;100.00
42951;BME280;28592;51.064;17.192;2022-12-07T08:52:53;99697.27;;;3.68;100.00
42951;BME280;28592;51.064;17.192;2022-12-07T08:55:44;99702.18;;;3.85;100.00
42951;BME280;28592;51.064;17.192;2022-12-07T08:58:33;99692.01;;;3.93;100.00
42951;BME280;28592;51.064;17.192;2022-12-07T09:01:18;99689.82;;;3.87;100.00
42951;BME280;28592;51.064;17.192;2022-12-07T09:04:04;99691.70;;;3.85;100.00
42951;BME280;28592;51.064;17.192;2022-12-07T09:06:50;99687.56;;;4.06;100.00
42951;BME280;28592;51.064;17.192;2022-12-07T09:09:36;99684.88;;;4.31;100.00
42951;BME280;28592;51.064;17.192;2022-12-07T09:12:24;99681.81;;;4.37;100.00
42951;BME280;28592;51.064;17.192;2022-12-07T09:15:10;99678.34;;;4.36;100.00
42951;BME280;28592;51.064;17.192;2022-12-07T09:17:55;99674.39;;;4.31;100.00
42951;BME280;28592;51.064;17.192;2022-12-07T09:20:40;99673.28;;;4.46;100.00
42951;BME280;28592;51.064;17.192;2022-12-07T09:23:26;99667.18;;;4.45;100.00
42951;BME280;28592;51.064;17.192;2022-12-07T09:26:11;99661.38;;;4.53;100.00
42951;BME280;28592;51.064;17.192;2022-12-07T09:28:56;99662.95;;;4.55;100.00
42951;BME280;28592;51.064;17.192;2022-12-07T09:31:42;99654.23;;;4.55;100.00
42951;BME280;28592;51.064;17.192;2022-12-07T09:34:30;99654.59;;;4.85;100.00
42951;BME280;28592;51.064;17.192;2022-12-07T09:37:16;99646.98;;;4.93;100.00
42951;BME280;28592;51.064;17.192;2022-12-07T09:40:04;99642.70;;;4.92;100.00
42951;BME280;28592;51.064;17.192;2022-12-07T09:42:52;99630.54;;;5.02;100.00
42951;BME280;28592;51.064;17.192;2022-12-07T09:45:38;99631.50;;;5.01;100.00
42951;BME280;28592;51.064;17.192;2022-12-07T09:48:30;99633.43;;;5.10;100.00
42951;BME280;28592;51.064;17.192;2022-12-07T09:51:22;99633.55;;;5.08;100.00
42951;BME280;28592;51.064;17.192;2022-12-07T09:54:12;99636.10;;;4.86;100.00
42951;BME280;28592;51.064;17.192;2022-12-07T09:56:58;99634.44;;;4.85;100.00
42951;BME280;28592;51.064;17.192;2022-12-07T09:59:44;99621.31;;;4.85;100.00
42951;BME280;28592;51.064;17.192;2022-12-07T10:05:37;99622.23;;;5.41;99.28
42951;BME280;28592;51.064;17.192;2022-12-07T10:08:24;99631.78;;;5.31;95.96
42951;BME280;28592;51.064;17.192;2022-12-07T10:11:13;99622.70;;;5.35;99.65
42951;BME280;28592;51.064;17.192;2022-12-07T10:17:00;99603.38;;;5.36;99.57
42951;BME280;28592;51.064;17.192;2022-12-07T10:19:45;99609.23;;;5.28;99.37
42951;BME280;28592;51.064;17.192;2022-12-07T10:22:30;99589.77;;;5.31;100.00
42951;BME280;28592;51.064;17.192;2022-12-07T10:25:21;99589.53;;;5.45;100.00
42951;BME280;28592;51.064;17.192;2022-12-07T10:28:13;99594.91;;;5.43;100.00
42951;BME280;28592;51.064;17.192;2022-12-07T10:31:02;99590.34;;;5.45;100.00
42951;BME280;28592;51.064;17.192;2022-12-07T10:33:57;99580.80;;;5.44;100.00
42951;BME280;28592;51.064;17.192;2022-12-07T10:36:43;99572.56;;;5.16;100.00
42951;BME280;28592;51.064;17.192;2022-12-07T10:39:28;99577.66;;;4.95;100.00
42951;BME280;28592;51.064;17.192;2022-12-07T10:42:23;99588.39;;;4.92;100.00
42951;BME280;28592;51.064;17.192;2022-12-07T10:45:16;99574.57;;;4.90;100.00
42951;BME280;28592;51.064;17.192;2022-12-07T10:51:10;99581.51;;;5.02;100.00
42951;BME280;28592;51.064;17.192;2022-12-07T10:56:59;99575.91;;;5.07;100.00
42951;BME280;28592;51.064;17.192;2022-12-07T11:05:45;99573.86;;;4.99;100.00
42951;BME280;28592;51.064;17.192;2022-12-07T11:11:47;99562.02;;;4.94;100.00
42951;BME280;28592;51.064;17.192;2022-12-07T11:17:32;99586.15;;;4.53;100.00
42951;BME280;28592;51.064;17.192;2022-12-07T11:29:25;99573.20;;;4.74;100.00
42951;BME280;28592;51.064;17.192;2022-12-07T11:41:03;99556.87;;;4.70;100.00
42951;BME280;28592;51.064;17.192;2022-12-07T11:44:08;99561.27;;;4.70;100.00
42951;BME280;28592;51.064;17.192;2022-12-07T11:50:05;99548.34;;;4.56;100.00
42951;BME280;28592;51.064;17.192;2022-12-07T11:55:57;99556.84;;;4.59;100.00
42951;BME280;28592;51.064;17.192;2022-12-07T11:58:54;99563.69;;;4.84;100.00
42951;BME280;28592;51.064;17.192;2022-12-07T12:04:47;99552.70;;;4.79;100.00
42951;BME280;28592;51.064;17.192;2022-12-07T12:07:34;99543.16;;;4.78;100.00
42951;BME280;28592;51.064;17.192;2022-12-07T12:22:15;99560.16;;;4.27;100.00
42951;BME280;28592;51.064;17.192;2022-12-07T12:25:06;99561.45;;;4.45;100.00
42951;BME280;28592;51.064;17.192;2022-12-07T12:27:55;99574.91;;;4.40;100.00
42951;BME280;28592;51.064;17.192;2022-12-07T12:30:44;99556.68;;;4.50;100.00
42951;BME280;28592;51.064;17.192;2022-12-07T12:33:31;99562.89;;;4.49;100.00
42951;BME280;28592;51.064;17.192;2022-12-07T12:39:16;99551.82;;;4.56;100.00
42951;BME280;28592;51.064;17.192;2022-12-07T12:42:17;99543.60;;;4.61;100.00
42951;BME280;28592;51.064;17.192;2022-12-07T12:48:07;99547.95;;;4.84;100.00
42951;BME280;28592;51.064;17.192;2022-12-07T12:53:51;99553.17;;;4.73;100.00
42951;BME280;28592;51.064;17.192;2022-12-07T13:02:35;99542.70;;;4.84;100.00
42951;BME280;28592;51.064;17.192;2022-12-07T13:05:30;99543.63;;;4.72;100.00
42951;BME280;28592;51.064;17.192;2022-12-07T13:08:24;99550.16;;;4.66;100.00
42951;BME280;28592;51.064;17.192;2022-12-07T13:11:17;99550.55;;;4.73;100.00
42951;BME280;28592;51.064;17.192;2022-12-07T13:17:00;99555.56;;;4.76;100.00
42951;BME280;28592;51.064;17.192;2022-12-07T13:19:55;99546.02;;;4.75;100.00
42951;BME280;28592;51.064;17.192;2022-12-07T13:22:48;99545.30;;;4.73;100.00
42951;BME280;28592;51.064;17.192;2022-12-07T13:25:44;99554.95;;;4.72;100.00
42951;BME280;28592;51.064;17.192;2022-12-07T13:28:37;99545.41;;;4.71;100.00
42951;BME280;28592;51.064;17.192;2022-12-07T13:31:34;99546.26;;;4.72;100.00
42951;BME280;28592;51.064;17.192;2022-12-07T13:37:30;99551.94;;;4.55;100.00
42951;BME280;28592;51.064;17.192;2022-12-07T13:40:22;99557.34;;;4.64;100.00
42951;BME280;28592;51.064;17.192;2022-12-07T13:43:14;99561.73;;;4.64;100.00
42951;BME280;28592;51.064;17.192;2022-12-07T13:46:08;99561.73;;;4.64;100.00
42951;BME280;28592;51.064;17.192;2022-12-07T13:49:16;99554.83;;;4.63;100.00
42951;BME280;28592;51.064;17.192;2022-12-07T13:52:14;99566.17;;;4.74;100.00
42951;BME280;28592;51.064;17.192;2022-12-07T13:55:14;99567.95;;;4.74;100.00
42951;BME280;28592;51.064;17.192;2022-12-07T13:58:02;99558.41;;;4.73;100.00
42951;BME280;28592;51.064;17.192;2022-12-07T14:00:54;99551.27;;;4.75;100.00
42951;BME280;28592;51.064;17.192;2022-12-07T14:03:44;99556.64;;;4.73;100.00
42951;BME280;28592;51.064;17.192;2022-12-07T14:06:29;99560.89;;;4.63;100.00
42951;BME280;28592;51.064;17.192;2022-12-07T14:09:24;99559.11;;;4.64;100.00
42951;BME280;28592;51.064;17.192;2022-12-07T14:12:16;99550.78;;;4.70;100.00
42951;BME280;28592;51.064;17.192;2022-12-07T14:15:15;99553.86;;;4.64;100.00
42951;BME280;28592;51.064;17.192;2022-12-07T14:18:00;99549.58;;;4.63;100.00
42951;BME280;28592;51.064;17.192;2022-12-07T14:26:51;99546.07;;;4.51;100.00
42951;BME280;28592;51.064;17.192;2022-12-07T14:29:40;99541.91;;;4.49;100.00
42951;BME280;28592;51.064;17.192;2022-12-07T14:32:30;99546.42;;;4.47;100.00
42951;BME280;28592;51.064;17.192;2022-12-07T14:35:19;99543.56;;;4.50;100.00
42951;BME280;28592;51.064;17.192;2022-12-07T14:38:06;99548.52;;;4.31;100.00
42951;BME280;28592;51.064;17.192;2022-12-07T14:40:53;99544.94;;;4.32;100.00
42951;BME280;28592;51.064;17.192;2022-12-07T14:43:50;99552.30;;;4.27;100.00
42951;BME280;28592;51.064;17.192;2022-12-07T14:46:38;99550.64;;;4.26;100.00
42951;BME280;28592;51.064;17.192;2022-12-07T14:49:26;99557.41;;;4.17;100.00
42951;BME280;28592;51.064;17.192;2022-12-07T14:52:26;99543.63;;;4.03;100.00
42951;BME280;28592;51.064;17.192;2022-12-07T14:55:25;99549.76;;;3.91;100.00
42951;BME280;28592;51.064;17.192;2022-12-07T14:58:16;99545.37;;;3.91;100.00
42951;BME280;28592;51.064;17.192;2022-12-07T15:01:05;99560.87;;;3.94;100.00
42951;BME280;28592;51.064;17.192;2022-12-07T15:03:52;99555.73;;;3.93;100.00
42951;BME280;28592;51.064;17.192;2022-12-07T15:06:39;99560.59;;;4.10;100.00
42951;BME280;28592;51.064;17.192;2022-12-07T15:09:30;99561.41;;;4.10;100.00
42951;BME280;28592;51.064;17.192;2022-12-07T15:15:22;99566.31;;;4.15;100.00
42951;BME280;28592;51.064;17.192;2022-12-07T15:18:11;99569.39;;;4.09;100.00
42951;BME280;28592;51.064;17.192;2022-12-07T15:20:58;99574.80;;;4.18;100.00
42951;BME280;28592;51.064;17.192;2022-12-07T15:23:48;99573.14;;;4.17;100.00
42951;BME280;28592;51.064;17.192;2022-12-07T15:26:33;99575.88;;;4.16;100.00
42951;BME280;28592;51.064;17.192;2022-12-07T15:29:19;99579.17;;;4.07;100.00
42951;BME280;28592;51.064;17.192;2022-12-07T15:32:08;99587.03;;;4.07;100.00
42951;BME280;28592;51.064;17.192;2022-12-07T15:34:56;99580.94;;;4.06;100.00
42951;BME280;28592;51.064;17.192;2022-12-07T15:37:42;99582.72;;;4.06;100.00
42951;BME280;28592;51.064;17.192;2022-12-07T15:40:31;99577.47;;;4.06;100.00
42951;BME280;28592;51.064;17.192;2022-12-07T15:43:19;99582.55;;;4.20;100.00
42951;BME280;28592;51.064;17.192;2022-12-07T15:46:19;99583.66;;;4.28;100.00
42951;BME280;28592;51.064;17.192;2022-12-07T15:49:10;99595.38;;;4.35;100.00
42951;BME280;28592;51.064;17.192;2022-12-07T15:51:59;99580.78;;;4.20;100.00
42951;BME280;28592;51.064;17.192;2022-12-07T15:54:45;99576.47;;;4.19;100.00
42951;BME280;28592;51.064;17.192;2022-12-07T15:57:33;99586.27;;;4.28;100.00
42951;BME280;28592;51.064;17.192;2022-12-07T16:00:19;99580.10;;;4.29;100.00
42951;BME280;28592;51.064;17.192;2022-12-07T16:03:05;99581.14;;;4.27;100.00
42951;BME280;28592;51.064;17.192;2022-12-07T16:05:53;99579.82;;;4.21;100.00
42951;BME280;28592;51.064;17.192;2022-12-07T16:08:44;99582.44;;;4.21;100.00
42951;BME280;28592;51.064;17.192;2022-12-07T16:11:34;99583.85;;;4.14;100.00
42951;BME280;28592;51.064;17.192;2022-12-07T16:14:23;99594.56;;;4.11;100.00
42951;BME280;28592;51.064;17.192;2022-12-07T16:17:10;99584.63;;;4.04;100.00
42951;BME280;28592;51.064;17.192;2022-12-07T16:19:56;99587.25;;;4.04;100.00
42951;BME280;28592;51.064;17.192;2022-12-07T16:22:46;99600.69;;;3.99;100.00
42951;BME280;28592;51.064;17.192;2022-12-07T16:25:34;99594.38;;;4.02;100.00
42951;BME280;28592;51.064;17.192;2022-12-07T16:28:28;99590.09;;;4.01;100.00
42951;BME280;28592;51.064;17.192;2022-12-07T16:31:15;99591.47;;;3.94;100.00
42951;BME280;28592;51.064;17.192;2022-12-07T16:34:04;99593.46;;;3.90;100.00
42951;BME280;28592;51.064;17.192;2022-12-07T16:36:55;99588.33;;;3.89;100.00
42951;BME280;28592;51.064;17.192;2022-12-07T16:39:42;99591.23;;;3.73;100.00
42951;BME280;28592;51.064;17.192;2022-12-07T16:42:31;99590.28;;;3.74;100.00
42951;BME280;28592;51.064;17.192;2022-12-07T16:45:17;99590.72;;;3.68;100.00
42951;BME280;28592;51.064;17.192;2022-12-07T16:48:05;99589.83;;;3.44;100.00
42951;BME280;28592;51.064;17.192;2022-12-07T16:50:53;99593.91;;;3.35;100.00
42951;BME280;28592;51.064;17.192;2022-12-07T16:53:40;99588.28;;;3.16;100.00
42951;BME280;28592;51.064;17.192;2022-12-07T16:56:27;99588.59;;;2.99;100.00